createdAt,value
2023-04-03T00:01:32.000Z,79.1
2023-04-03T00:02:49.000Z,79
2023-04-03T00:04:05.200Z,79
2023-04-03T00:05:21.000Z,79.2
2023-04-03T00:06:19.587Z,79.3
2023-04-03T00:07:53.000Z,79.3
2023-04-03T00:09:09.000Z,79.1
2023-04-03T00:10:08.168Z,79.2
2023-04-03T00:11:24.361Z,79
2023-04-03T00:12:40.555Z,79.3
2023-04-03T00:14:13.000Z,79.6
2023-04-03T00:15:29.959Z,79.5
2023-04-03T00:16:46.000Z,79.3
2023-04-03T00:18:02.347Z,79.6
2023-04-03T00:19:18.558Z,79.3
2023-04-03T00:20:34.000Z,79.3
2023-04-03T00:21:32.926Z,78.9
2023-04-03T00:22:49.120Z,79.3
2023-04-03T00:24:23.000Z,79.3
2023-04-03T00:25:39.516Z,79.3
2023-04-03T00:26:55.000Z,79.3
2023-04-03T00:28:11.000Z,79.3
2023-04-03T00:29:10.087Z,79.3
2023-04-03T00:31:07.000Z,79
2023-04-03T00:31:59.509Z,79.2
2023-04-03T00:33:15.000Z,79.2
2023-04-03T00:34:31.000Z,79.3
2023-04-03T00:35:30.071Z,79
2023-04-03T00:37:04.000Z,79
2023-04-03T00:38:02.459Z,79.9
2023-04-03T00:39:36.659Z,79
2023-04-03T00:40:52.856Z,78.8
2023-04-03T00:42:33.000Z,78.7
2023-04-03T00:43:07.233Z,78.8
2023-04-03T00:44:41.000Z,79
2023-04-03T00:45:57.000Z,79
2023-04-03T00:47:13.825Z,78.8
2023-04-03T00:48:11.024Z,78.8
2023-04-03T00:49:45.000Z,78.7
2023-04-03T00:50:43.411Z,78.8
2023-04-03T00:51:59.604Z,78.6
2023-04-03T00:53:15.798Z,79.1
2023-04-03T00:54:49.991Z,79.1
2023-04-03T00:55:48.185Z,79.2
2023-04-03T00:57:22.392Z,79.2
2023-04-03T00:58:38.000Z,79.2
2023-04-03T01:00:19.000Z,79
2023-04-03T01:00:52.959Z,79.3
2023-04-03T01:02:27.152Z,79.1
2023-04-03T01:03:25.345Z,79.2
2023-04-03T01:04:59.539Z,79
2023-04-03T01:05:57.732Z,79.1
2023-04-03T01:07:13.926Z,79.1
2023-04-03T01:08:29.135Z,79.3
2023-04-03T01:10:03.336Z,79.5
2023-04-03T01:11:19.525Z,79.8
2023-04-03T01:12:35.000Z,79.8
2023-04-03T01:13:33.912Z,79.6
2023-04-03T01:15:32.000Z,79.9
2023-04-03T01:16:06.299Z,80.3
2023-04-03T01:17:40.492Z,79.8
2023-04-03T01:18:56.687Z,79.5
2023-04-03T01:20:12.885Z,79.7
2023-04-03T01:21:11.074Z,79.9
2023-04-03T01:23:09.000Z,79.9
2023-04-03T01:24:01.000Z,80.1
2023-04-03T01:25:17.000Z,80
2023-04-03T01:26:15.849Z,80.1
2023-04-03T01:27:50.000Z,80.1
2023-04-03T01:28:48.236Z,80
2023-04-03T01:30:21.449Z,80
2023-04-03T01:31:19.640Z,80.1
2023-04-03T01:32:53.000Z,80.1
2023-04-03T01:34:10.034Z,80.1
2023-04-03T01:35:26.224Z,80
2023-04-03T01:36:42.000Z,80.2
2023-04-03T01:37:58.607Z,80.2
2023-04-03T01:39:14.816Z,80.5
2023-04-03T01:40:31.000Z,80.4
2023-04-03T01:41:29.188Z,80.5
2023-04-03T01:43:03.393Z,80.5
2023-04-03T01:44:19.579Z,80.5
2023-04-03T01:46:00.000Z,80.6
2023-04-03T01:47:15.000Z,80.7
2023-04-03T01:48:07.000Z,80.5
2023-04-03T01:49:23.000Z,80.7
2023-04-03T01:50:39.557Z,80.6
2023-04-03T01:51:55.000Z,80.6
2023-04-03T01:53:11.000Z,80.8
2023-04-03T01:54:10.137Z,80.9
2023-04-03T01:55:44.332Z,80.9
2023-04-03T01:56:42.524Z,81
2023-04-03T01:58:16.722Z,81.1
2023-04-03T01:59:14.911Z,81.3
2023-04-03T02:00:49.000Z,80.7
2023-04-03T02:02:05.298Z,80.9
2023-04-03T02:03:21.492Z,81
2023-04-03T02:04:19.686Z,81.3
2023-04-03T02:05:34.896Z,81.6
2023-04-03T02:07:09.090Z,81.6
2023-04-03T02:08:25.000Z,81.5
2023-04-03T02:09:41.483Z,82.3
2023-04-03T02:10:57.000Z,81.8
2023-04-03T02:12:13.864Z,81.9
2023-04-03T02:13:12.056Z,81.7
2023-04-03T02:14:46.000Z,81.5
2023-04-03T02:16:26.000Z,81.5
2023-04-03T02:17:18.000Z,81.5
2023-04-03T02:18:34.830Z,81.7
2023-04-03T02:19:33.024Z,82.3
2023-04-03T02:21:07.237Z,81.5
2023-04-03T02:22:23.548Z,82
2023-04-03T02:23:39.000Z,81.7
2023-04-03T02:24:37.920Z,81.8
2023-04-03T02:26:12.114Z,81.9
2023-04-03T02:27:28.000Z,81.8
2023-04-03T02:28:44.501Z,81.8
2023-04-03T02:29:42.694Z,81.8
2023-04-03T02:31:16.000Z,82
2023-04-03T02:32:15.081Z,82
2023-04-03T02:33:49.000Z,82
2023-04-03T02:35:05.480Z,82.3
2023-04-03T02:36:03.663Z,81.9
2023-04-03T02:37:37.859Z,81.6
2023-04-03T02:38:35.066Z,81.7
2023-04-03T02:40:09.000Z,81.5
2023-04-03T02:41:25.452Z,81.4
2023-04-03T02:42:23.646Z,81.3
2023-04-03T02:43:39.839Z,81.5
2023-04-03T02:44:56.033Z,81.5
2023-04-03T02:46:30.229Z,81.8
2023-04-03T02:47:28.420Z,81.5
2023-04-03T02:49:02.000Z,81.5
2023-04-03T02:50:00.807Z,81.5
2023-04-03T02:51:17.000Z,81.7
2023-04-03T02:52:51.000Z,81.8
2023-04-03T02:54:07.000Z,81.8
2023-04-03T02:55:05.580Z,81.9
2023-04-03T02:56:39.774Z,82
2023-04-03T02:57:37.967Z,82
2023-04-03T02:59:11.000Z,82.3
2023-04-03T03:00:09.370Z,82.6
2023-04-03T03:01:43.564Z,82.2
2023-04-03T03:02:41.757Z,82.9
2023-04-03T03:04:15.000Z,82.3
2023-04-03T03:05:32.000Z,82.3
2023-04-03T03:06:48.357Z,82.3
2023-04-03T03:07:46.531Z,82.5
2023-04-03T03:09:20.000Z,82.6
2023-04-03T03:10:18.919Z,82.6
2023-04-03T03:11:53.125Z,82.3
2023-04-03T03:13:09.326Z,82.2
2023-04-03T03:14:25.499Z,82.3
2023-04-03T03:15:40.730Z,82.3
2023-04-03T03:16:38.903Z,82.3
2023-04-03T03:18:13.000Z,82.4
2023-04-03T03:19:29.000Z,82.5
2023-04-03T03:20:45.492Z,83
2023-04-03T03:21:43.677Z,83
2023-04-03T03:22:59.871Z,83.4
2023-04-03T03:24:16.064Z,82.8
2023-04-03T03:25:32.258Z,82.7
2023-04-03T03:27:06.000Z,83
2023-04-03T03:28:04.645Z,83.3
2023-04-03T03:29:20.838Z,83.2
2023-04-03T03:30:55.000Z,83.9
2023-04-03T03:32:11.234Z,83.4
2023-04-03T03:33:08.434Z,83.5
2023-04-03T03:34:42.629Z,83.2
2023-04-03T03:35:40.823Z,83.5
2023-04-03T03:37:15.032Z,83.5
2023-04-03T03:38:31.224Z,83.4
2023-04-03T03:39:29.403Z,83.6
2023-04-03T03:41:03.000Z,83.6
2023-04-03T03:42:19.000Z,83.9
2023-04-03T03:43:35.000Z,83.5
2023-04-03T03:44:52.177Z,83.6
2023-04-03T03:45:50.371Z,83.9
2023-04-03T03:47:24.000Z,83.9
2023-04-03T03:48:40.766Z,83.7
2023-04-03T03:49:55.000Z,84
2023-04-03T03:50:54.161Z,84.5
2023-04-03T03:52:10.354Z,84.2
2023-04-03T03:53:26.548Z,84.2
2023-04-03T03:54:42.742Z,84.2
2023-04-03T03:56:16.000Z,84.5
2023-04-03T03:57:33.128Z,85.3
2023-04-03T03:58:49.334Z,84.5
2023-04-03T04:00:04.551Z,84.3
2023-04-03T04:01:02.731Z,84.5
2023-04-03T04:02:36.000Z,84.5
2023-04-03T04:03:35.118Z,84.5
2023-04-03T04:05:09.000Z,84.7
2023-04-03T04:06:07.506Z,84.8
2023-04-03T04:07:41.705Z,84.3
2023-04-03T04:08:57.893Z,84.1
2023-04-03T04:10:38.000Z,84.5
2023-04-03T04:11:12.280Z,84.2
2023-04-03T04:12:46.474Z,84.3
2023-04-03T04:13:44.667Z,84
2023-04-03T04:15:18.868Z,84.3
2023-04-03T04:16:16.071Z,84.2
2023-04-03T04:17:32.266Z,84.2
2023-04-03T04:18:48.459Z,84.3
2023-04-03T04:20:22.000Z,84.5
2023-04-03T04:21:38.000Z,84.5
2023-04-03T04:22:55.049Z,84.3
2023-04-03T04:24:11.242Z,84.7
2023-04-03T04:25:51.000Z,84.2
2023-04-03T04:26:25.620Z,84.5
2023-04-03T04:27:59.814Z,84.7
2023-04-03T04:29:16.011Z,84.8
2023-04-03T04:30:14.201Z,84.9
2023-04-03T04:31:48.000Z,85.4
2023-04-03T04:32:46.588Z,85.2
2023-04-03T04:34:20.000Z,85.1
2023-04-03T04:35:36.000Z,85
2023-04-03T04:36:53.000Z,85.2
2023-04-03T04:38:09.362Z,85.2
2023-04-03T04:39:25.560Z,85.4
2023-04-03T04:40:40.000Z,85.4
2023-04-03T04:41:38.958Z,85.6
2023-04-03T04:43:13.000Z,85.6
2023-04-03T04:44:29.350Z,85.8
2023-04-03T04:45:27.539Z,85.5
2023-04-03T04:47:01.000Z,86
2023-04-03T04:47:59.927Z,86.2
2023-04-03T04:49:16.120Z,85.9
2023-04-03T04:50:50.000Z,86
2023-04-03T04:52:06.525Z,85.7
2023-04-03T04:53:22.720Z,85.8
2023-04-03T04:54:20.894Z,86.6
2023-04-03T04:55:55.105Z,86.3
2023-04-03T04:57:11.000Z,86
2023-04-03T04:58:26.000Z,86.3
2023-04-03T04:59:42.000Z,86.3
2023-04-03T05:00:58.896Z,86.1
2023-04-03T05:01:57.072Z,86.7
2023-04-03T05:03:13.265Z,85.9
2023-04-03T05:04:47.466Z,85.8
2023-04-03T05:06:03.000Z,85.9
2023-04-03T05:07:01.846Z,85.9
2023-04-03T05:08:18.039Z,86
2023-04-03T05:10:16.000Z,85.6
2023-04-03T05:11:08.434Z,85.5
2023-04-03T05:12:24.620Z,85.7
2023-04-03T05:13:40.813Z,85.7
2023-04-03T05:14:39.007Z,85.7
2023-04-03T05:16:13.219Z,85.5
2023-04-03T05:17:11.394Z,85.4
2023-04-03T05:18:26.604Z,85.4
2023-04-03T05:20:00.000Z,85.4
2023-04-03T05:21:16.000Z,85.2
2023-04-03T05:22:33.000Z,85.3
2023-04-03T05:23:49.400Z,85.7
2023-04-03T05:25:05.000Z,85.3
2023-04-03T05:26:03.765Z,85.1
2023-04-03T05:27:37.966Z,85.1
2023-04-03T05:28:54.000Z,85.2
2023-04-03T05:29:52.346Z,85.4
2023-04-03T05:31:26.000Z,85.5
2023-04-03T05:32:24.734Z,85.3
2023-04-03T05:33:58.000Z,85.2
2023-04-03T05:34:57.121Z,85.2
2023-04-03T05:36:30.000Z,85.3
2023-04-03T05:37:46.000Z,85.1
2023-04-03T05:39:02.000Z,85
2023-04-03T05:40:18.922Z,85
2023-04-03T05:41:17.104Z,85
2023-04-03T05:42:51.302Z,85.1
2023-04-03T05:44:07.000Z,85.2
2023-04-03T05:45:05.685Z,85.2
2023-04-03T05:46:39.000Z,84.9
2023-04-03T05:47:38.072Z,84.6
2023-04-03T05:49:12.000Z,84.9
2023-04-03T05:50:28.000Z,84.6
2023-04-03T05:51:44.000Z,85.1
2023-04-03T05:52:42.846Z,84.6
2023-04-03T05:54:16.056Z,84.4
2023-04-03T05:55:32.254Z,84.1
2023-04-03T05:56:48.000Z,84.4
2023-04-03T05:57:46.636Z,84.6
2023-04-03T05:59:20.829Z,85.1
2023-04-03T06:00:37.030Z,84.5
2023-04-03T06:01:53.232Z,84.1
2023-04-03T06:03:09.000Z,83.8
2023-04-03T06:04:07.604Z,83.7
2023-04-03T06:05:23.798Z,84.2
2023-04-03T06:06:58.000Z,84.4
2023-04-03T06:07:56.185Z,83.8
2023-04-03T06:09:30.000Z,84
2023-04-03T06:10:46.000Z,84
2023-04-03T06:12:02.766Z,83.5
2023-04-03T06:13:00.960Z,83.6
2023-04-03T06:14:34.171Z,83.6
2023-04-03T06:15:50.000Z,83.3
2023-04-03T06:17:06.561Z,83.3
2023-04-03T06:18:22.757Z,82.8
2023-04-03T06:19:20.946Z,82.8
2023-04-03T06:20:37.139Z,82.6
2023-04-03T06:22:11.000Z,82
2023-04-03T06:23:09.527Z,82.4
2023-04-03T06:24:25.720Z,82
2023-04-03T06:25:59.921Z,81.8
2023-04-03T06:27:16.000Z,81.6
2023-04-03T06:28:32.000Z,81.4
2023-04-03T06:29:48.514Z,80.6
2023-04-03T06:30:45.705Z,80.3
2023-04-03T06:32:19.917Z,80.3
2023-04-03T06:33:18.094Z,80.2
2023-04-03T06:34:52.293Z,80
2023-04-03T06:36:08.492Z,80
2023-04-03T06:37:24.000Z,79.9
2023-04-03T06:38:22.870Z,78.8
2023-04-03T06:39:57.000Z,78.5
2023-04-03T06:41:13.000Z,78.7
2023-04-03T06:42:29.464Z,78.5
2023-04-03T06:43:27.645Z,78.3
2023-04-03T06:45:01.838Z,77.7
2023-04-03T06:46:42.000Z,77.6
2023-04-03T06:47:16.227Z,76.5
2023-04-03T06:48:31.437Z,76
2023-04-03T06:50:05.636Z,75.6
2023-04-03T06:51:03.824Z,75.8
2023-04-03T06:52:38.000Z,76.2
2023-04-03T06:53:54.000Z,76.3
2023-04-03T06:55:10.422Z,76.3
2023-04-03T06:56:08.603Z,75.4
2023-04-03T06:57:42.000Z,74.9
2023-04-03T06:58:40.995Z,75.1
2023-04-03T07:00:15.000Z,75.4
2023-04-03T07:01:13.385Z,74.7
2023-04-03T07:02:47.603Z,74.6
2023-04-03T07:04:03.782Z,74.2
2023-04-03T07:05:19.004Z,74.1
2023-04-03T07:06:35.000Z,74
2023-04-03T07:07:51.000Z,74
2023-04-03T07:09:07.000Z,73
2023-04-03T07:10:23.000Z,72.7
2023-04-03T07:11:21.963Z,72.3
2023-04-03T07:13:20.000Z,72.4
2023-04-03T07:13:54.354Z,72.8
2023-04-03T07:15:28.000Z,72.2
2023-04-03T07:16:26.745Z,71.7
2023-04-03T07:18:00.000Z,69.8
2023-04-03T07:19:17.000Z,68.2
2023-04-03T07:20:33.335Z,68.4
2023-04-03T07:21:31.527Z,68.7
2023-04-03T07:23:04.000Z,67.9
2023-04-03T07:24:20.939Z,67.3
2023-04-03T07:25:37.000Z,66.8
2023-04-03T07:26:35.323Z,66.7
2023-04-03T07:28:33.000Z,67
2023-04-03T07:29:07.713Z,65.9
2023-04-03T07:30:41.000Z,65.7
2023-04-03T07:31:58.000Z,66
2023-04-03T07:33:14.317Z,64.4
2023-04-03T07:34:12.493Z,63.4
2023-04-03T07:35:46.704Z,63.8
2023-04-03T07:37:02.897Z,64
2023-04-03T07:38:19.000Z,63.9
2023-04-03T07:39:35.278Z,64.3
2023-04-03T07:40:50.505Z,63.8
2023-04-03T07:42:06.686Z,63.6
2023-04-03T07:43:22.000Z,63.9
2023-04-03T07:44:39.000Z,63.7
2023-04-03T07:45:55.000Z,64.4
2023-04-03T07:47:11.466Z,64.6
2023-04-03T07:48:27.654Z,63.7
2023-04-03T07:49:43.875Z,65.2
2023-04-03T07:51:24.000Z,65.1
2023-04-03T07:52:16.260Z,65.2
2023-04-03T07:53:32.000Z,65.3
2023-04-03T07:54:48.642Z,64.8
2023-04-03T07:56:04.000Z,64.7
2023-04-03T07:57:21.000Z,64.5
2023-04-03T07:58:19.215Z,63.6
2023-04-03T07:59:35.410Z,63.2
2023-04-03T08:01:09.624Z,63.7
2023-04-03T08:02:06.816Z,64
2023-04-03T08:03:41.033Z,63.1
2023-04-03T08:04:39.206Z,62
2023-04-03T08:06:13.401Z,62.6
2023-04-03T08:07:29.596Z,63.6
2023-04-03T08:08:45.791Z,63.6
2023-04-03T08:10:01.000Z,64.4
2023-04-03T08:11:18.202Z,64
2023-04-03T08:12:34.000Z,63.2
2023-04-03T08:13:50.000Z,64
2023-04-03T08:15:06.000Z,64.2
2023-04-03T08:16:22.000Z,64.1
2023-04-03T08:17:39.171Z,63.8
2023-04-03T08:18:54.395Z,63.6
2023-04-03T08:20:10.000Z,64
2023-04-03T08:21:26.784Z,63.1
2023-04-03T08:22:42.000Z,64
2023-04-03T08:23:59.153Z,63.6
2023-04-03T08:24:57.348Z,62.9
2023-04-03T08:26:13.543Z,63
2023-04-03T08:27:47.000Z,63.5
2023-04-03T08:29:03.000Z,62.6
2023-04-03T08:30:02.128Z,61.9
2023-04-03T08:31:36.000Z,62
2023-04-03T08:32:52.000Z,62.3
2023-04-03T08:34:08.000Z,61.9
2023-04-03T08:35:24.908Z,61.9
2023-04-03T08:36:41.117Z,61.5
2023-04-03T08:37:39.420Z,61.5
2023-04-03T08:39:13.000Z,61.5
2023-04-03T08:40:11.810Z,61.3
2023-04-03T08:41:46.000Z,61.2
2023-04-03T08:42:44.200Z,61.5
2023-04-03T08:44:18.410Z,60.7
2023-04-03T08:45:34.600Z,60.7
2023-04-03T08:46:50.000Z,60.8
2023-04-03T08:48:06.000Z,60
2023-04-03T08:49:23.000Z,59.9
2023-04-03T08:50:21.370Z,59.7
2023-04-03T08:51:55.000Z,58.2
2023-04-03T08:52:53.760Z,58.6
2023-04-03T08:54:26.000Z,58.2
2023-04-03T08:55:25.166Z,58.5
2023-04-03T08:56:59.383Z,59.2
2023-04-03T08:57:57.556Z,59.1
2023-04-03T08:59:31.756Z,59.6
2023-04-03T09:00:47.000Z,60.1
2023-04-03T09:02:04.000Z,60.2
2023-04-03T09:03:20.000Z,58.8
2023-04-03T09:04:36.000Z,58.9
2023-04-03T09:05:34.727Z,59
2023-04-03T09:07:08.000Z,58.7
2023-04-03T09:08:07.117Z,58.8
2023-04-03T09:09:41.000Z,58.3
2023-04-03T09:10:39.508Z,57.8
2023-04-03T09:12:13.726Z,58.6
2023-04-03T09:13:28.914Z,57.5
2023-04-03T09:14:45.000Z,56.8
2023-04-03T09:16:01.000Z,56.7
2023-04-03T09:17:17.500Z,56.4
2023-04-03T09:18:33.718Z,57.4
2023-04-03T09:19:49.898Z,57.1
2023-04-03T09:21:06.097Z,57.9
2023-04-03T09:22:22.288Z,56.8
2023-04-03T09:23:20.476Z,56.4
2023-04-03T09:24:54.671Z,57.2
2023-04-03T09:26:10.000Z,57.3
2023-04-03T09:27:27.000Z,56.5
2023-04-03T09:28:43.274Z,56.6
2023-04-03T09:29:58.478Z,57
2023-04-03T09:30:56.663Z,57.4
2023-04-03T09:32:30.000Z,57.5
2023-04-03T09:33:47.000Z,57
2023-04-03T09:35:03.262Z,57.5
2023-04-03T09:36:19.000Z,57.3
2023-04-03T09:37:35.000Z,57.1
2023-04-03T09:38:51.833Z,56.9
2023-04-03T09:40:08.000Z,57.4
2023-04-03T09:41:06.223Z,57.9
2023-04-03T09:42:40.428Z,57.2
2023-04-03T09:43:38.613Z,57.1
2023-04-03T09:45:12.828Z,57.5
2023-04-03T09:46:29.000Z,57.3
2023-04-03T09:47:45.198Z,57
2023-04-03T09:49:01.402Z,57.6
2023-04-03T09:50:17.000Z,57.4
2023-04-03T09:51:33.783Z,57.4
2023-04-03T09:53:14.000Z,57.9
2023-04-03T09:53:48.173Z,58.4
2023-04-03T09:55:22.000Z,58.5
2023-04-03T09:56:38.582Z,57.8
2023-04-03T09:57:54.000Z,57.2
2023-04-03T09:59:10.000Z,56.7
2023-04-03T10:00:27.000Z,56.8
2023-04-03T10:01:24.356Z,56.2
2023-04-03T10:02:58.552Z,56.3
2023-04-03T10:04:14.000Z,56
2023-04-03T10:05:30.000Z,56.2
2023-04-03T10:06:47.155Z,55
2023-04-03T10:08:03.000Z,55.2
2023-04-03T10:09:19.527Z,55.3
2023-04-03T10:10:35.000Z,55.7
2023-04-03T10:11:51.000Z,54.8
2023-04-03T10:13:08.113Z,54.8
2023-04-03T10:14:06.308Z,54.7
2023-04-03T10:15:22.503Z,55
2023-04-03T10:16:56.698Z,54
2023-04-03T10:18:12.000Z,54.3
2023-04-03T10:19:29.110Z,53.7
2023-04-03T10:20:44.318Z,55.1
2023-04-03T10:21:42.495Z,54.5
2023-04-03T10:23:16.000Z,54.4
2023-04-03T10:24:32.000Z,53.8
2023-04-03T10:25:49.000Z,54.2
2023-04-03T10:27:29.000Z,52.3
2023-04-03T10:28:21.491Z,52.7
2023-04-03T10:29:37.000Z,51.5
2023-04-03T10:30:53.875Z,53.2
2023-04-03T10:31:52.057Z,51.9
2023-04-03T10:33:26.270Z,51.8
2023-04-03T10:34:42.452Z,51
2023-04-03T10:35:58.643Z,49.9
2023-04-03T10:37:13.867Z,51
2023-04-03T10:38:30.000Z,51.2
2023-04-03T10:39:46.262Z,51.5
2023-04-03T10:41:02.000Z,51.7
2023-04-03T10:42:18.635Z,51.5
2023-04-03T10:43:34.844Z,51.7
2023-04-03T10:44:33.025Z,52.3
2023-04-03T10:46:07.232Z,52.4
2023-04-03T10:47:05.416Z,52.4
2023-04-03T10:48:39.000Z,52.2
2023-04-03T10:49:55.829Z,53
2023-04-03T10:51:12.002Z,52.9
2023-04-03T10:52:10.197Z,51.5
2023-04-03T10:54:08.000Z,51.1
2023-04-03T10:55:00.000Z,51.2
2023-04-03T10:56:16.000Z,50.6
2023-04-03T10:57:33.106Z,51.5
2023-04-03T10:59:13.000Z,50.6
2023-04-03T10:59:47.490Z,50.6
2023-04-03T11:01:21.000Z,51
2023-04-03T11:02:19.881Z,51.3
2023-04-03T11:03:54.077Z,51.8
2023-04-03T11:04:52.272Z,52.3
2023-04-03T11:06:26.475Z,51.4
2023-04-03T11:07:42.000Z,51
2023-04-03T11:08:58.000Z,51.4
2023-04-03T11:09:57.053Z,51.4
2023-04-03T11:11:30.000Z,52.4
2023-04-03T11:12:28.460Z,52.1
2023-04-03T11:14:02.668Z,51.9
2023-04-03T11:15:00.850Z,51.8
2023-04-03T11:16:17.047Z,52.1
2023-04-03T11:17:33.242Z,52.2
2023-04-03T11:19:07.000Z,52.1
2023-04-03T11:20:23.000Z,52.6
2023-04-03T11:21:39.000Z,52.7
2023-04-03T11:22:38.025Z,52.9
2023-04-03T11:24:12.232Z,53.8
2023-04-03T11:25:28.000Z,54
2023-04-03T11:27:09.000Z,53.9
2023-04-03T11:28:00.000Z,53.3
2023-04-03T11:29:17.019Z,53.3
2023-04-03T11:30:15.199Z,53.4
2023-04-03T11:31:48.432Z,53.4
2023-04-03T11:33:04.000Z,54
2023-04-03T11:34:20.000Z,54.1
2023-04-03T11:35:18.997Z,54
2023-04-03T11:37:17.000Z,54.2
2023-04-03T11:37:51.388Z,54.5
2023-04-03T11:39:25.000Z,54.9
2023-04-03T11:40:41.787Z,54.5
2023-04-03T11:41:57.000Z,53.8
2023-04-03T11:43:14.185Z,53.7
2023-04-03T11:44:12.366Z,53.7
2023-04-03T11:45:46.000Z,53.8
2023-04-03T11:46:44.757Z,53.8
2023-04-03T11:48:01.073Z,54.3
2023-04-03T11:49:35.269Z,54.1
2023-04-03T11:50:51.471Z,53.7
2023-04-03T11:52:07.676Z,53.7
2023-04-03T11:53:05.854Z,54.3
2023-04-03T11:54:40.073Z,54.7
2023-04-03T11:55:38.246Z,54.9
2023-04-03T11:57:12.000Z,54.7
2023-04-03T11:58:28.000Z,55.1
2023-04-03T11:59:44.842Z,55.2
2023-04-03T12:00:43.026Z,54.8
2023-04-03T12:02:17.233Z,55.5
2023-04-03T12:03:33.000Z,55.4
2023-04-03T12:04:49.614Z,55
2023-04-03T12:06:05.825Z,55.8
2023-04-03T12:07:21.030Z,56.1
2023-04-03T12:08:19.216Z,56.2
2023-04-03T12:09:53.413Z,56.5
2023-04-03T12:11:09.000Z,57.6
2023-04-03T12:12:25.000Z,56.7
2023-04-03T12:13:23.998Z,57.1
2023-04-03T12:14:58.205Z,57.5
2023-04-03T12:16:14.396Z,57.7
2023-04-03T12:17:12.584Z,57.8
2023-04-03T12:18:28.779Z,57.9
2023-04-03T12:20:02.982Z,57
2023-04-03T12:21:19.192Z,57.4
2023-04-03T12:22:59.000Z,57.5
2023-04-03T12:23:51.559Z,57
2023-04-03T12:25:07.767Z,56.6
2023-04-03T12:26:04.967Z,57.3
2023-04-03T12:27:39.000Z,57.4
2023-04-03T12:28:55.379Z,57.6
2023-04-03T12:30:11.000Z,57.7
2023-04-03T12:31:27.000Z,58.3
2023-04-03T12:32:43.000Z,57.9
2023-04-03T12:33:42.138Z,57.7
2023-04-03T12:35:16.000Z,57.7
2023-04-03T12:36:32.000Z,58.6
2023-04-03T12:37:48.738Z,58.7
2023-04-03T12:39:03.949Z,57.2
2023-04-03T12:40:20.136Z,57.5
2023-04-03T12:41:18.331Z,57.5
2023-04-03T12:42:52.553Z,57.6
2023-04-03T12:43:50.721Z,57.8
2023-04-03T12:45:24.928Z,55.9
2023-04-03T12:46:23.111Z,55.4
2023-04-03T12:47:57.321Z,54.8
2023-04-03T12:49:13.000Z,55.1
2023-04-03T12:50:29.698Z,54.1
2023-04-03T12:51:27.892Z,53.8
2023-04-03T12:53:02.108Z,52.9
2023-04-03T12:54:00.283Z,52.6
2023-04-03T12:55:33.000Z,52.7
2023-04-03T12:56:31.690Z,53
2023-04-03T12:58:05.000Z,53.3
2023-04-03T12:59:22.098Z,55
2023-04-03T13:01:02.000Z,55
2023-04-03T13:01:54.000Z,54.8
2023-04-03T13:03:10.686Z,55
2023-04-03T13:04:08.862Z,55
2023-04-03T13:05:43.000Z,55.2
2023-04-03T13:06:59.265Z,55
2023-04-03T13:08:15.000Z,55.1
2023-04-03T13:09:31.000Z,55.1
2023-04-03T13:10:47.000Z,54.9
2023-04-03T13:12:04.060Z,55.1
2023-04-03T13:13:19.000Z,55.6
2023-04-03T13:14:35.441Z,55.5
2023-04-03T13:15:51.636Z,55.5
2023-04-03T13:17:07.838Z,55.2
2023-04-03T13:18:24.000Z,56.6
2023-04-03T13:19:22.222Z,56.4
2023-04-03T13:20:56.419Z,56.5
2023-04-03T13:21:54.614Z,56.6
2023-04-03T13:23:28.823Z,56.6
2023-04-03T13:24:27.005Z,56.6
2023-04-03T13:25:43.200Z,57.2
2023-04-03T13:27:17.395Z,57.1
2023-04-03T13:28:33.000Z,57.2
2023-04-03T13:29:31.785Z,57.6
2023-04-03T13:31:05.000Z,57.2
2023-04-03T13:32:22.186Z,57.7
2023-04-03T13:33:37.407Z,57.6
2023-04-03T13:34:53.000Z,57.8
2023-04-03T13:36:09.000Z,57.6
2023-04-03T13:37:07.975Z,57.5
2023-04-03T13:38:42.000Z,57.1
2023-04-03T13:39:58.000Z,56.9
2023-04-03T13:41:39.000Z,57.2
2023-04-03T13:42:12.756Z,56.7
2023-04-03T13:43:46.000Z,57.5
2023-04-03T13:45:03.156Z,57
2023-04-03T13:46:19.359Z,57
2023-04-03T13:47:35.000Z,56.6
2023-04-03T13:48:51.759Z,57.3
2023-04-03T13:50:32.000Z,57
2023-04-03T13:51:24.123Z,56.8
2023-04-03T13:52:40.000Z,57.1
2023-04-03T13:53:56.515Z,57.3
2023-04-03T13:55:12.710Z,56.8
2023-04-03T13:56:28.929Z,56.3
2023-04-03T13:57:45.108Z,56.3
2023-04-03T13:59:01.000Z,57
2023-04-03T14:00:17.511Z,57.5
2023-04-03T14:01:33.000Z,56.9
2023-04-03T14:02:49.000Z,57
2023-04-03T14:04:06.000Z,57.5
2023-04-03T14:05:22.000Z,58
2023-04-03T14:06:38.000Z,58.1
2023-04-03T14:07:54.672Z,58.4
2023-04-03T14:09:09.874Z,58.1
2023-04-03T14:10:08.069Z,57
2023-04-03T14:11:24.264Z,57.2
2023-04-03T14:12:40.460Z,57.3
2023-04-03T14:14:14.000Z,57.6
2023-04-03T14:15:12.853Z,57.5
2023-04-03T14:16:47.000Z,58.2
2023-04-03T14:18:03.000Z,57.8
2023-04-03T14:19:19.000Z,58.7
2023-04-03T14:20:17.635Z,58.2
2023-04-03T14:21:51.830Z,57.8
2023-04-03T14:23:08.046Z,58
2023-04-03T14:24:24.236Z,57.4
2023-04-03T14:25:39.457Z,57.4
2023-04-03T14:26:55.642Z,57.9
2023-04-03T14:28:11.838Z,56.1
2023-04-03T14:29:28.000Z,56.7
2023-04-03T14:30:44.216Z,56.9
2023-04-03T14:32:00.438Z,57.5
2023-04-03T14:32:58.607Z,56.8
2023-04-03T14:34:32.000Z,57
2023-04-03T14:35:30.998Z,56.7
2023-04-03T14:37:05.000Z,56.5
2023-04-03T14:38:03.388Z,55.9
2023-04-03T14:39:19.584Z,56.6
2023-04-03T14:40:35.779Z,56.6
2023-04-03T14:42:09.975Z,56.5
2023-04-03T14:43:26.000Z,56.8
2023-04-03T14:44:42.000Z,57.1
2023-04-03T14:45:58.571Z,57.5
2023-04-03T14:47:13.797Z,57.8
2023-04-03T14:48:29.979Z,57.1
2023-04-03T14:49:46.177Z,57.4
2023-04-03T14:51:02.000Z,57.7
2023-04-03T14:52:18.000Z,58.3
2023-04-03T14:53:16.752Z,58.1
2023-04-03T14:54:32.948Z,57.6
2023-04-03T14:57:23.351Z,58.7
2023-04-03T14:58:21.535Z,58.9
2023-04-03T14:59:55.730Z,59.6
2023-04-03T15:00:53.925Z,59.4
2023-04-03T15:02:28.000Z,60
2023-04-03T15:03:26.315Z,60.5
2023-04-03T15:04:59.000Z,61
2023-04-03T15:05:57.722Z,61.6
2023-04-03T15:07:31.000Z,61.5
2023-04-03T15:08:48.000Z,61.4
2023-04-03T15:10:28.000Z,61.3
2023-04-03T15:11:02.505Z,61.9
2023-04-03T15:12:36.000Z,62.4
2023-04-03T15:13:34.895Z,63.2
2023-04-03T15:15:09.000Z,62.3
2023-04-03T15:16:07.286Z,62.2
2023-04-03T15:17:23.481Z,62.5
2023-04-03T15:18:39.677Z,62.5
2023-04-03T15:20:13.882Z,62.9
2023-04-03T15:21:30.000Z,63.1
2023-04-03T15:22:46.263Z,63
2023-04-03T15:23:44.459Z,63.5
2023-04-03T15:25:18.677Z,63.1
2023-04-03T15:26:16.850Z,63.3
2023-04-03T15:27:33.045Z,63.3
2023-04-03T15:29:06.273Z,63.5
2023-04-03T15:30:22.452Z,63.9
2023-04-03T15:31:20.648Z,64.1
2023-04-03T15:32:54.000Z,63.7
2023-04-03T15:34:11.000Z,63.4
2023-04-03T15:35:27.260Z,62.8
2023-04-03T15:36:25.429Z,62.8
2023-04-03T15:37:59.624Z,63
2023-04-03T15:38:57.819Z,63.2
2023-04-03T15:40:32.015Z,63.5
2023-04-03T15:41:30.210Z,62.5
2023-04-03T15:42:46.405Z,62.4
2023-04-03T15:44:20.600Z,62.7
2023-04-03T15:45:36.000Z,62.7
2023-04-03T15:46:53.000Z,62.8
2023-04-03T15:47:51.186Z,62.5
2023-04-03T15:49:07.380Z,62.5
2023-04-03T15:50:23.577Z,62.8
2023-04-03T15:51:39.771Z,62.8
2023-04-03T15:53:12.000Z,62.9
2023-04-03T15:54:29.190Z,62.9
2023-04-03T15:55:27.374Z,62.6
2023-04-03T15:56:43.568Z,62.6
2023-04-03T15:58:17.787Z,62.9
2023-04-03T15:59:33.000Z,62.6
2023-04-03T16:00:50.000Z,62.6
2023-04-03T16:02:06.363Z,62.4
2023-04-03T16:03:47.000Z,62.6
2023-04-03T16:04:20.738Z,62.7
2023-04-03T16:05:36.933Z,63.1
2023-04-03T16:07:11.151Z,63.1
2023-04-03T16:08:27.000Z,63.3
2023-04-03T16:09:25.518Z,63.1
2023-04-03T16:10:41.713Z,62.5
2023-04-03T16:12:15.909Z,62.7
2023-04-03T16:13:32.114Z,62.9
2023-04-03T16:14:30.300Z,63.1
2023-04-03T16:16:04.000Z,63.9
2023-04-03T16:17:02.690Z,63.9
2023-04-03T16:18:35.929Z,63.8
2023-04-03T16:19:34.097Z,62.4
2023-04-03T16:21:08.305Z,60
2023-04-03T16:22:24.499Z,57.9
2023-04-03T16:23:40.684Z,57
2023-04-03T16:24:56.000Z,56.5
2023-04-03T16:26:13.086Z,56
2023-04-03T16:27:11.266Z,55.7
2023-04-03T16:28:45.479Z,55.1
2023-04-03T16:29:43.652Z,55
2023-04-03T16:31:17.000Z,56.3
2023-04-03T16:32:16.038Z,56.3
2023-04-03T16:33:50.000Z,56.3
2023-04-03T16:34:48.425Z,56.1
2023-04-03T16:36:22.630Z,56.5
2023-04-03T16:37:38.000Z,57.1
2023-04-03T16:38:55.003Z,58.5
2023-04-03T16:39:53.196Z,59.7
2023-04-03T16:41:27.417Z,60
2023-04-03T16:42:24.598Z,60.4
2023-04-03T16:43:58.804Z,60.8
2023-04-03T16:44:56.985Z,61.2
2023-04-03T16:46:31.000Z,61.9
2023-04-03T16:47:47.380Z,62.5
2023-04-03T16:49:03.000Z,63.5
2023-04-03T16:50:19.000Z,63.6
2023-04-03T16:51:35.977Z,64.8
2023-04-03T16:52:34.144Z,63.6
2023-04-03T16:54:07.000Z,63.5
2023-04-03T16:55:05.552Z,63.5
2023-04-03T16:56:21.746Z,63.9
2023-04-03T16:57:37.939Z,63.4
2023-04-03T16:59:12.132Z,63.6
2023-04-03T17:00:10.325Z,64
2023-04-03T17:01:44.518Z,64.4
2023-04-03T17:03:00.000Z,64.2
2023-04-03T17:03:58.904Z,64.2